Time;durP1;ratioP1;P1;durP2;ratioP2;P2;SDS_P1;SDS_P2;PMS_P1;PMS_P2;Temp;Humidity;BMP_temperature;BMP_pressure;BME280_temperature;BME280_humidity;BME280_pressure;Samples;Min_cycle;Max_cycle;Signal;HPM_P1;HPM_P2
2022/07/19 05:03:16;;;;;;;;;9.00;7.50;;;;;25.06;39.74;101287.22;2575330;22;46982;-80
2022/07/19 05:04:26;;;;;;;;;8.00;7.25;;;;;25.07;39.62;101288.91;2412062;28;45327;-78
2022/07/19 05:05:37;;;;;;;;;8.25;7.25;;;;;25.07;39.46;101286.22;2412298;28;45321;-78
2022/07/19 05:06:49;;;;;;;;;11.00;7.75;;;;;25.10;39.78;101282.41;2412446;28;45542;-78
2022/07/19 05:08:00;;;;;;;;;8.25;6.50;;;;;25.13;39.74;101282.16;2412999;28;45367;-79
2022/07/19 05:09:10;;;;;;;;;8.00;8.00;;;;;25.14;39.85;101281.16;2413495;28;45336;-79
2022/07/19 05:10:21;;;;;;;;;8.25;7.25;;;;;25.15;39.58;101281.03;2413411;28;46475;-79
2022/07/19 05:11:31;;;;;;;;;7.00;7.00;;;;;25.17;39.96;101283.59;2400837;28;45274;-78
2022/07/19 05:12:42;;;;;;;;;10.25;9.25;;;;;25.19;39.48;101280.78;2393530;28;48435;-76
2022/07/19 05:13:52;;;;;;;;;8.00;6.50;;;;;25.20;39.80;101283.31;2402343;28;45261;-77
2022/07/19 05:15:04;;;;;;;;;8.50;7.75;;;;;25.22;40.08;101284.03;2412539;28;46231;-77
2022/07/19 05:16:14;;;;;;;;;9.00;8.00;;;;;25.23;39.82;101282.19;2417868;28;45219;-77
2022/07/19 05:17:25;;;;;;;;;9.25;6.25;;;;;25.24;39.80;101279.38;2403281;28;48146;-78
2022/07/19 05:18:35;;;;;;;;;6.50;5.00;;;;;25.26;39.86;101287.31;2406011;28;45333;-79
2022/07/19 05:19:46;;;;;;;;;9.50;8.50;;;;;25.27;39.91;101281.78;2403654;28;46087;-79
2022/07/19 05:20:56;;;;;;;;;7.50;5.25;;;;;25.29;40.26;101284.34;2393970;28;44670;-78
2022/07/19 05:22:07;;;;;;;;;8.25;8.00;;;;;25.31;40.31;101286.91;2405040;28;46285;-78
2022/07/19 05:23:17;;;;;;;;;8.50;7.25;;;;;25.32;40.63;101286.78;2413415;28;45138;-77
2022/07/19 05:24:28;;;;;;;;;11.00;8.00;;;;;25.32;40.10;101286.78;2402906;28;46949;-78
2022/07/19 05:25:38;;;;;;;;;11.75;9.25;;;;;25.33;40.28;101283.09;2406331;28;45276;-77
2022/07/19 05:26:48;;;;;;;;;8.50;8.25;;;;;25.35;39.95;101283.81;2413148;28;46533;-78
2022/07/19 05:27:58;;;;;;;;;6.50;6.50;;;;;25.34;40.50;101284.78;2403260;28;44684;-78
2022/07/19 05:29:09;;;;;;;;;7.00;6.25;;;;;25.36;39.97;101282.81;2396436;28;46935;-78
2022/07/19 05:30:19;;;;;;;;;9.75;8.75;;;;;25.36;40.08;101288.19;2405119;28;45595;-78
2022/07/19 05:31:30;;;;;;;;;8.75;8.00;;;;;25.37;39.85;101284.53;2413551;28;45307;-78
2022/07/19 05:32:40;;;;;;;;;9.25;8.25;;;;;25.39;40.14;101287.94;2413690;28;45344;-78
2022/07/19 05:33:50;;;;;;;;;7.25;7.25;;;;;25.41;40.16;101285.09;2413365;28;45356;-78
2022/07/19 05:35:01;;;;;;;;;10.00;8.75;;;;;25.42;40.20;101280.56;2403366;28;44751;-78
2022/07/19 05:36:11;;;;;;;;;10.00;7.25;;;;;25.45;40.84;101291.06;2405832;28;45346;-78
2022/07/19 05:37:22;;;;;;;;;9.50;8.50;;;;;25.45;40.46;101285.69;2410647;28;45498;-81
2022/07/19 05:38:34;;;;;;;;;10.00;8.50;;;;;25.46;40.12;101282.84;2410918;28;46590;-78
2022/07/19 05:39:44;;;;;;;;;7.75;7.75;;;;;25.49;40.33;101287.09;2412394;28;45395;-78
2022/07/19 05:40:54;;;;;;;;;8.25;7.25;;;;;25.50;40.74;101286.13;2410649;28;46046;-78
2022/07/19 05:42:05;;;;;;;;;8.00;8.00;;;;;25.53;41.37;101285.00;2409310;28;45532;-78
2022/07/19 05:43:15;;;;;;;;;8.75;8.25;;;;;25.53;40.17;101283.19;2410225;28;51593;-78
2022/07/19 05:44:25;;;;;;;;;10.00;8.00;;;;;25.55;40.73;101286.56;2409725;28;44877;-78
2022/07/19 05:45:36;;;;;;;;;10.75;8.25;;;;;25.58;40.03;101277.38;2411475;28;46670;-78
2022/07/19 05:46:46;;;;;;;;;10.75;10.00;;;;;25.61;40.49;101280.63;2400024;28;46691;-78
2022/07/19 05:47:56;;;;;;;;;12.50;10.00;;;;;25.63;40.64;101281.34;2395710;28;47307;-78
2022/07/19 05:49:10;;;;;;;;;13.00;9.50;;;;;25.65;40.42;101278.53;2404391;28;45267;-78
2022/07/19 05:50:20;;;;;;;;;10.50;9.25;;;;;25.68;39.81;101286.31;2412794;28;45326;-78
2022/07/19 05:51:31;;;;;;;;;9.00;8.00;;;;;25.70;39.74;101270.91;2403520;28;44688;-78
2022/07/19 05:52:41;;;;;;;;;10.75;9.00;;;;;25.73;39.95;101278.72;2408619;28;45507;-78
2022/07/19 05:53:51;;;;;;;;;10.50;9.50;;;;;25.75;39.72;101275.91;2411445;28;45266;-78
2022/07/19 05:55:02;;;;;;;;;12.50;9.75;;;;;25.78;39.92;101278.28;2408715;28;45397;-78
2022/07/19 05:56:12;;;;;;;;;9.00;7.00;;;;;25.81;39.16;101277.16;2412616;28;45265;-78
2022/07/19 05:57:23;;;;;;;;;7.00;7.00;;;;;25.84;39.44;101277.75;2412516;28;47253;-78
2022/07/19 05:58:33;;;;;;;;;10.50;10.00;;;;;25.87;39.40;101278.47;2402122;28;44767;-78
2022/07/19 05:59:43;;;;;;;;;9.00;9.00;;;;;25.91;39.39;101279.88;2404802;28;46482;-78
2022/07/19 06:02:24;;;;;;;;;10.50;9.75;;;;;25.95;38.40;101270.56;2413061;28;45146;-78
2022/07/19 06:03:34;;;;;;;;;9.75;9.75;;;;;25.99;38.65;101273.78;2413835;28;45466;-77
2022/07/19 06:04:45;;;;;;;;;10.50;9.25;;;;;26.02;38.50;101277.06;2404375;28;48239;-78
2022/07/19 06:05:55;;;;;;;;;11.25;9.00;;;;;26.06;38.43;101275.78;2406136;28;45490;-78
2022/07/19 06:07:05;;;;;;;;;9.00;9.00;;;;;26.10;37.93;101264.75;2402816;28;48013;-78
2022/07/19 06:08:16;;;;;;;;;13.25;8.00;;;;;26.13;38.30;101273.38;2405917;28;45319;-78
2022/07/19 06:09:26;;;;;;;;;8.00;8.00;;;;;26.15;38.16;101266.00;2402092;28;46947;-78
2022/07/19 06:10:36;;;;;;;;;12.25;10.25;;;;;26.20;37.94;101268.28;2396170;28;45445;-78
2022/07/19 06:11:47;;;;;;;;;13.50;10.25;;;;;26.25;38.16;101270.56;2404775;28;46264;-78
2022/07/19 06:12:57;;;;;;;;;11.50;10.25;;;;;26.28;37.90;101276.50;2403202;28;45294;-77
2022/07/19 06:14:12;;;;;;;;;12.75;11.00;;;;;26.32;37.17;101270.84;2404897;28;46166;-77
2022/07/19 06:15:22;;;;;;;;;12.00;10.25;;;;;26.35;37.64;101270.56;2412147;28;45170;-77
2022/07/19 06:16:32;;;;;;;;;11.50;10.00;;;;;26.39;37.61;101269.28;2402524;28;47242;-77
2022/07/19 06:17:42;;;;;;;;;13.00;10.25;;;;;26.41;37.48;101265.44;2395867;28;45219;-78
2022/07/19 06:18:53;;;;;;;;;11.75;10.50;;;;;26.44;38.04;101258.09;2395933;28;47591;-77
2022/07/19 06:20:04;;;;;;;;;10.00;10.00;;;;;26.45;38.18;101257.94;2409625;28;44579;-77
2022/07/19 06:21:18;;;;;;;;;13.50;9.50;;;;;26.48;38.13;101260.34;2411994;28;45298;-76
2022/07/19 06:22:31;;;;;;;;;11.50;10.00;;;;;26.50;37.52;101258.38;2420378;28;45238;-76
2022/07/19 06:23:42;;;;;;;;;11.00;11.00;;;;;26.52;37.58;101256.38;2413171;28;46224;-76
2022/07/19 06:24:52;;;;;;;;;12.50;10.25;;;;;26.56;37.43;101253.41;2407948;28;45441;-76
2022/07/19 06:26:04;;;;;;;;;8.00;8.00;;;;;26.59;37.32;101255.81;2396644;28;47774;-77
2022/07/19 06:27:14;;;;;;;;;12.00;10.00;;;;;26.62;37.78;101255.50;2396327;28;44646;-76
2022/07/19 06:28:25;;;;;;;;;11.50;9.25;;;;;26.65;37.67;101255.22;2404665;28;45478;-76
2022/07/19 06:29:36;;;;;;;;;10.75;9.00;;;;;26.67;37.64;101253.22;2412844;28;45245;-77
2022/07/19 06:30:46;;;;;;;;;8.25;8.00;;;;;26.71;37.03;101248.41;2412047;28;46253;-76
2022/07/19 06:31:56;;;;;;;;;10.00;10.00;;;;;26.73;37.34;101249.97;2403845;28;46815;-77
2022/07/19 06:33:07;;;;;;;;;10.75;9.25;;;;;26.77;37.08;101252.38;2402438;28;47218;-78
2022/07/19 06:34:17;;;;;;;;;9.00;8.75;;;;;26.79;37.64;101251.22;2400966;28;45806;-76
2022/07/19 06:35:27;;;;;;;;;8.25;8.25;;;;;26.83;37.11;101246.38;2404593;28;45426;-77
2022/07/19 06:36:38;;;;;;;;;12.25;10.00;;;;;26.85;36.89;101242.53;2411566;28;45356;-77
2022/07/19 06:37:48;;;;;;;;;13.75;11.50;;;;;26.88;37.12;101246.78;2401330;28;49587;-77
2022/07/19 06:38:59;;;;;;;;;9.25;9.25;;;;;26.91;37.01;101238.41;2408694;28;45502;-77
2022/07/19 06:40:09;;;;;;;;;10.50;9.00;;;;;26.93;36.25;101235.56;2414293;28;45417;-77
2022/07/19 06:41:21;;;;;;;;;11.25;10.75;;;;;26.96;36.66;101236.13;2404004;28;45353;-77
2022/07/19 06:42:32;;;;;;;;;8.50;8.50;;;;;27.00;36.45;101235.81;2398104;28;47659;-77
2022/07/19 06:43:43;;;;;;;;;8.25;8.00;;;;;27.03;36.88;101235.53;2404945;28;45426;-77
2022/07/19 06:44:53;;;;;;;;;11.25;10.00;;;;;27.05;36.69;101234.38;2411520;28;46301;-76
2022/07/19 06:46:04;;;;;;;;;13.25;11.25;;;;;27.08;36.65;101231.41;2403186;28;45492;-77
2022/07/19 06:47:14;;;;;;;;;10.50;10.50;;;;;27.10;36.39;101231.25;2404890;28;46352;-77
2022/07/19 06:48:24;;;;;;;;;10.00;9.50;;;;;27.12;36.87;101228.41;2401730;28;45246;-77
2022/07/19 06:49:35;;;;;;;;;10.00;9.00;;;;;27.14;36.53;101221.88;2405093;28;46518;-77
2022/07/19 06:50:45;;;;;;;;;12.50;10.25;;;;;27.15;36.28;101223.59;2400137;28;44799;-77
2022/07/19 06:51:56;;;;;;;;;10.00;9.25;;;;;27.18;36.07;101225.13;2401007;28;46333;-77
2022/07/19 06:53:06;;;;;;;;;13.25;10.50;;;;;27.19;36.21;101224.97;2407778;28;45353;-77
2022/07/19 06:54:16;;;;;;;;;9.75;9.75;;;;;27.23;36.32;101224.69;2410953;28;46050;-77
2022/07/19 06:55:27;;;;;;;;;13.75;11.00;;;;;27.25;35.93;101222.69;2407583;28;45370;-77
2022/07/19 06:56:37;;;;;;;;;11.00;9.75;;;;;27.27;35.69;101223.38;2408162;28;45526;-77
2022/07/19 06:57:48;;;;;;;;;19.50;17.50;;;;;27.28;36.30;101233.19;2401492;28;44861;-77
2022/07/19 06:58:58;;;;;;;;;21.25;17.00;;;;;27.31;35.78;101222.09;2407683;28;46240;-77
2022/07/19 07:00:09;;;;;;;;;14.00;13.50;;;;;27.32;36.27;101226.47;2414486;28;45254;-77
2022/07/19 07:01:20;;;;;;;;;32.75;27.00;;;;;27.34;36.34;101227.16;2403344;28;47283;-77
2022/07/19 07:02:30;;;;;;;;;16.75;16.75;;;;;27.37;35.97;101226.03;2405667;28;45423;-77
2022/07/19 07:03:40;;;;;;;;;12.50;9.00;;;;;27.39;36.22;101230.28;2410901;28;45479;-78
2022/07/19 07:04:51;;;;;;;;;18.25;16.75;;;;;27.41;35.98;101225.56;2408401;28;44886;-78
2022/07/19 07:06:01;;;;;;;;;15.00;12.25;;;;;27.44;36.22;101227.13;2409505;28;45546;-79
2022/07/19 07:07:11;;;;;;;;;14.75;12.75;;;;;27.46;36.04;101225.13;2412730;28;45288;-77
2022/07/19 07:08:21;;;;;;;;;13.75;13.00;;;;;27.49;36.07;101229.34;2414132;28;46178;-76
2022/07/19 07:09:32;;;;;;;;;11.25;11.00;;;;;27.49;36.08;101226.66;2403189;28;45529;-77
2022/07/19 07:10:42;;;;;;;;;14.50;12.75;;;;;27.50;35.67;101225.69;2405707;28;46446;-77
2022/07/19 07:11:53;;;;;;;;;16.50;14.25;;;;;27.52;35.73;101223.66;2410582;28;45404;-76
2022/07/19 07:13:03;;;;;;;;;11.00;11.00;;;;;27.52;35.59;101223.66;2412199;28;46296;-77
2022/07/19 07:14:13;;;;;;;;;13.50;12.25;;;;;27.54;35.42;101224.34;2411490;28;45221;-76
2022/07/19 07:15:24;;;;;;;;;12.00;10.25;;;;;27.55;35.90;101227.91;2402222;28;47444;-76
2022/07/19 07:16:34;;;;;;;;;11.75;11.50;;;;;27.55;35.55;101217.97;2406240;28;45298;-76
2022/07/19 07:17:44;;;;;;;;;12.00;10.00;;;;;27.56;35.36;101219.66;2421016;28;45362;-76
2022/07/19 07:18:55;;;;;;;;;12.25;10.50;;;;;27.57;35.43;101217.81;2403840;28;45280;-76
2022/07/19 07:20:07;;;;;;;;;11.75;9.25;;;;;27.57;35.64;101215.97;2408943;28;48345;-77
2022/07/19 07:21:18;;;;;;;;;12.00;10.25;;;;;27.58;35.33;101224.91;2411418;28;44830;-77
2022/07/19 07:22:28;;;;;;;;;12.75;11.00;;;;;27.57;35.69;101215.97;2402111;28;47981;-76
2022/07/19 07:23:38;;;;;;;;;12.50;11.25;;;;;27.59;35.73;101218.50;2402344;28;44799;-77
2022/07/19 07:24:49;;;;;;;;;10.50;8.25;;;;;27.59;35.52;101213.09;2414112;28;46360;-76
2022/07/19 07:25:59;;;;;;;;;10.00;9.50;;;;;27.58;35.88;101223.06;2413137;28;45413;-76
2022/07/19 07:27:10;;;;;;;;;15.50;10.00;;;;;27.58;35.13;101217.69;2418648;28;48860;-77
2022/07/19 07:28:20;;;;;;;;;9.25;9.00;;;;;27.59;35.34;101218.50;2410793;28;45559;-77
2022/07/19 07:29:30;;;;;;;;;11.00;9.00;;;;;27.58;35.79;101212.28;2400771;28;47182;-76
2022/07/19 07:30:41;;;;;;;;;12.00;9.25;;;;;27.58;35.68;101214.97;2405761;28;44773;-76
2022/07/19 07:31:51;;;;;;;;;10.00;10.00;;;;;27.59;35.98;101218.50;2412348;28;45265;-76
2022/07/19 07:33:01;;;;;;;;;9.50;8.00;;;;;27.59;35.73;101215.81;2412225;28;44873;-76
2022/07/19 07:34:12;;;;;;;;;10.75;10.50;;;;;27.60;35.41;101212.13;2410790;28;45503;-76
2022/07/19 07:35:22;;;;;;;;;13.50;11.75;;;;;27.58;35.80;101206.88;2417937;28;44774;-77
2022/07/19 07:36:33;;;;;;;;;11.25;11.25;;;;;27.58;35.47;101206.88;2403857;28;48034;-76
2022/07/19 07:37:43;;;;;;;;;11.75;9.25;;;;;27.57;35.26;101205.16;2404824;28;45333;-76
2022/07/19 07:38:53;;;;;;;;;9.25;7.25;;;;;27.59;35.92;101205.00;2403655;28;47504;-76
2022/07/19 07:40:04;;;;;;;;;5.00;4.50;;;;;27.57;35.46;101210.56;2408847;28;45401;-76
2022/07/19 07:41:15;;;;;;;;;11.50;10.00;;;;;27.57;35.67;101207.00;2416079;28;45478;-76
2022/07/19 07:42:25;;;;;;;;;10.75;6.00;;;;;27.58;35.29;101204.19;2408763;28;45303;-76
2022/07/19 07:43:36;;;;;;;;;10.50;8.75;;;;;27.58;35.42;101206.88;2407802;28;46531;-76
2022/07/19 07:44:46;;;;;;;;;11.25;10.75;;;;;27.60;35.31;101204.88;2409099;28;44836;-76
2022/07/19 07:45:57;;;;;;;;;12.00;10.75;;;;;27.60;35.78;101202.16;2408250;28;45435;-76
2022/07/19 07:47:08;;;;;;;;;7.75;7.75;;;;;27.64;35.53;101205.41;2412348;28;45371;-76
2022/07/19 07:48:18;;;;;;;;;9.75;9.75;;;;;27.61;35.29;101198.44;2410698;28;45557;-76
2022/07/19 07:49:30;;;;;;;;;13.00;10.25;;;;;27.64;35.71;101200.00;2409792;28;45749;-76
2022/07/19 07:50:40;;;;;;;;;46.50;36.00;;;;;27.65;36.11;101201.72;2402252;28;48242;-76
2022/07/19 07:51:50;;;;;;;;;10.75;9.00;;;;;27.67;35.84;101197.00;2409880;28;46452;-76
2022/07/19 07:53:01;;;;;;;;;15.00;13.50;;;;;27.68;35.51;101197.84;2412253;28;46279;-76
2022/07/19 07:54:11;;;;;;;;;13.75;11.00;;;;;27.68;35.32;101189.75;2412313;28;45443;-76
2022/07/19 07:55:21;;;;;;;;;8.25;7.50;;;;;27.69;35.56;101196.84;2417034;28;46157;-76
2022/07/19 07:56:32;;;;;;;;;12.50;12.50;;;;;27.68;36.05;101187.06;2405139;28;44884;-76
2022/07/19 07:57:43;;;;;;;;;15.25;13.50;;;;;27.71;35.79;101194.81;2403851;28;45357;-76
2022/07/19 07:58:53;;;;;;;;;14.25;12.25;;;;;27.73;35.83;101188.28;2412241;28;45217;-76
2022/07/19 08:00:06;;;;;;;;;17.50;12.25;;;;;27.75;35.74;101185.44;2417590;28;45295;-76
2022/07/19 08:01:17;;;;;;;;;13.75;12.25;;;;;27.75;36.00;101191.69;2412192;28;45353;-76
2022/07/19 08:02:27;;;;;;;;;10.00;10.00;;;;;27.77;35.66;101182.56;2421136;28;45399;-76
2022/07/19 08:03:38;;;;;;;;;11.75;11.25;;;;;27.77;35.91;101188.84;2412097;28;45460;-76
2022/07/19 08:04:48;;;;;;;;;10.50;9.75;;;;;27.76;35.72;101181.72;2418342;28;45334;-76
2022/07/19 08:05:58;;;;;;;;;13.00;11.50;;;;;27.75;35.35;101180.03;2419222;28;45370;-76
2022/07/19 08:07:09;;;;;;;;;10.75;10.75;;;;;27.73;35.80;101182.88;2401021;28;48270;-76
2022/07/19 08:08:19;;;;;;;;;15.00;12.00;;;;;27.73;35.86;101171.25;2401024;28;45394;-76
2022/07/19 08:09:30;;;;;;;;;17.25;13.25;;;;;27.73;35.56;101172.06;2404992;28;45387;-76
2022/07/19 08:10:41;;;;;;;;;6.00;6.00;;;;;27.74;35.28;101172.94;2411964;28;45356;-76
2022/07/19 08:11:52;;;;;;;;;10.25;10.25;;;;;27.73;35.75;101169.38;2410527;28;45562;-76
2022/07/19 08:13:02;;;;;;;;;15.00;10.25;;;;;27.73;35.56;101169.38;2408256;28;45196;-76
2022/07/19 08:14:13;;;;;;;;;13.50;9.75;;;;;27.73;35.55;101168.56;2396187;28;46946;-76
2022/07/19 08:15:23;;;;;;;;;11.25;11.00;;;;;27.72;35.34;101158.75;2396081;28;45243;-76
2022/07/19 08:16:33;;;;;;;;;11.25;11.25;;;;;27.73;35.35;101165.84;2402905;28;46136;-75
2022/07/19 08:17:44;;;;;;;;;13.25;12.25;;;;;27.75;35.31;101170.09;2403197;28;45457;-76
2022/07/19 08:18:54;;;;;;;;;14.75;11.75;;;;;27.75;35.78;101159.28;2401976;28;49847;-75
2022/07/19 08:20:05;;;;;;;;;14.50;12.50;;;;;27.78;35.67;101159.97;2400467;28;45183;-76
2022/07/19 08:21:16;;;;;;;;;14.50;12.00;;;;;27.79;35.79;101162.56;2395572;28;47026;-76
2022/07/19 08:22:28;;;;;;;;;13.00;12.25;;;;;27.81;35.54;101159.69;2404697;28;45204;-76
2022/07/19 08:23:41;;;;;;;;;13.75;11.50;;;;;27.81;35.31;101163.22;2408912;28;45575;-76
2022/07/19 08:24:51;;;;;;;;;13.75;13.75;;;;;27.83;35.22;101155.00;2415416;28;44833;-76
2022/07/19 08:26:02;;;;;;;;;15.75;12.00;;;;;27.82;35.71;101158.69;2409955;28;46847;-75
2022/07/19 08:27:12;;;;;;;;;18.00;14.50;;;;;27.82;35.75;101159.53;2409886;28;45315;-76
2022/07/19 08:28:22;;;;;;;;;15.25;13.50;;;;;27.82;35.27;101162.25;2411338;28;48199;-75
2022/07/19 08:29:33;;;;;;;;;11.50;11.50;;;;;27.81;35.16;101156.97;2412405;28;45735;-76
2022/07/19 08:30:43;;;;;;;;;10.00;9.25;;;;;27.81;35.59;101156.97;2408672;28;45743;-76
2022/07/19 08:31:53;;;;;;;;;12.50;12.25;;;;;27.81;35.16;101159.69;2406739;28;45349;-76
2022/07/19 08:33:08;;;;;;;;;15.25;11.25;;;;;27.81;35.57;101157.84;2405085;28;46619;-76
2022/07/19 08:34:18;;;;;;;;;8.75;8.25;;;;;27.79;35.52;101154.44;2397347;28;45459;-76
2022/07/19 08:35:28;;;;;;;;;21.50;18.75;;;;;27.79;35.43;101159.84;2398476;28;46875;-76
2022/07/19 08:36:39;;;;;;;;;16.75;13.25;;;;;27.78;35.68;101147.31;2401945;28;45398;-76
2022/07/19 08:37:49;;;;;;;;;15.00;11.50;;;;;27.78;35.51;101147.31;2396864;28;46521;-76
2022/07/19 08:38:59;;;;;;;;;13.25;11.25;;;;;27.78;35.24;101138.38;2402689;28;45131;-76
2022/07/19 08:40:10;;;;;;;;;11.50;11.50;;;;;27.79;35.61;101142.78;2415421;28;45352;-75
2022/07/19 08:41:21;;;;;;;;;13.00;11.25;;;;;27.79;35.25;101143.66;2411792;28;44783;-75
2022/07/19 08:42:31;;;;;;;;;11.00;10.25;;;;;27.80;35.37;101144.50;2400502;28;48293;-75
2022/07/19 08:43:42;;;;;;;;;13.00;13.00;;;;;27.80;34.85;101134.56;2406431;28;44807;-76
2022/07/19 08:44:54;;;;;;;;;12.50;11.00;;;;;27.81;35.30;101136.22;2406256;28;48213;-76
2022/07/19 08:46:04;;;;;;;;;11.25;11.25;;;;;27.82;35.61;101140.63;2409491;28;45181;-76
2022/07/19 08:47:15;;;;;;;;;11.00;10.25;;;;;27.82;35.41;101137.09;2406373;28;48121;-75
2022/07/19 08:48:30;;;;;;;;;12.00;11.25;;;;;27.82;35.88;101132.53;2409021;28;44692;-76
2022/07/19 08:49:43;;;;;;;;;15.25;12.50;;;;;27.82;35.28;101131.69;2407358;28;48744;-75
2022/07/19 08:50:54;;;;;;;;;10.75;10.75;;;;;27.83;35.52;101128.81;2411568;28;45237;-76
2022/07/19 08:52:04;;;;;;;;;11.25;11.00;;;;;27.83;35.14;101125.28;2416571;28;46056;-76
2022/07/19 08:53:15;;;;;;;;;13.00;11.25;;;;;27.85;35.42;101132.22;2402901;28;45359;-75
2022/07/19 08:54:25;;;;;;;;;12.50;12.50;;;;;27.86;35.57;101133.91;2404354;28;46390;-75
2022/07/19 08:55:36;;;;;;;;;11.00;11.00;;;;;27.86;34.90;101131.22;2404464;28;45408;-76
2022/07/19 08:58:16;;;;;;;;;12.25;10.25;;;;;27.90;35.08;101130.91;2411013;28;45338;-75
2022/07/19 08:59:26;;;;;;;;;10.50;9.50;;;;;27.90;35.06;101128.22;2421411;28;46724;-75
2022/07/19 09:00:36;;;;;;;;;15.50;12.00;;;;;27.90;35.22;101128.22;2401052;28;45250;-75
2022/07/19 09:01:47;;;;;;;;;10.75;9.75;;;;;27.92;34.98;101120.78;2397421;28;48057;-75
2022/07/19 09:02:58;;;;;;;;;14.00;12.00;;;;;27.94;34.88;101121.47;2396479;28;44799;-76
2022/07/19 09:04:10;;;;;;;;;11.00;11.00;;;;;27.95;34.84;101120.50;2411482;28;46187;-75
2022/07/19 09:05:21;;;;;;;;;12.25;12.25;;;;;27.98;35.15;101125.56;2420821;28;45303;-75
2022/07/19 09:06:40;;;;;;;;;9.50;9.50;;;;;28.00;35.37;101120.00;2429700;28;46205;-75
2022/07/19 09:08:19;;;;;;;;;9.00;8.50;;;;;28.02;34.80;101116.16;2416920;28;45316;-75
2022/07/19 09:09:32;;;;;;;;;12.75;11.25;;;;;28.04;35.36;101119.53;2400562;28;46651;-75
2022/07/19 09:12:17;;;;;;;;;8.50;8.50;;;;;28.07;34.87;101119.22;2413393;28;45897;-75
2022/07/19 09:13:27;;;;;;;;;11.00;11.00;;;;;28.09;34.52;101117.22;2410163;28;45348;-75
2022/07/19 09:14:39;;;;;;;;;13.00;11.25;;;;;28.10;34.78;101112.66;2402279;28;47888;-75
2022/07/19 09:15:52;;;;;;;;;12.00;11.00;;;;;28.08;35.03;101110.09;2414313;28;45320;-75
2022/07/19 09:17:09;;;;;;;;;12.50;11.00;;;;;28.06;34.58;101109.41;2425943;28;46194;-75
2022/07/19 09:18:29;;;;;;;;;13.00;10.25;;;;;28.04;34.40;101114.13;2419811;28;45408;-76
2022/07/19 09:19:42;;;;;;;;;13.50;11.50;;;;;28.04;34.81;101110.59;2415581;28;46996;-75
2022/07/19 09:20:57;;;;;;;;;14.75;13.25;;;;;28.01;34.75;101109.03;2417259;28;45209;-76
2022/07/19 09:22:10;;;;;;;;;9.00;9.00;;;;;28.01;34.28;101103.63;2416161;28;46771;-76
2022/07/19 09:23:21;;;;;;;;;15.50;11.75;;;;;28.01;34.46;101106.34;2409905;28;44726;-76
2022/07/19 09:24:39;;;;;;;;;14.00;12.75;;;;;28.00;34.87;101101.09;2405466;28;48127;-75
2022/07/19 09:25:52;;;;;;;;;11.50;11.00;;;;;27.98;34.89;101103.94;2413110;28;44755;-75
2022/07/19 09:27:03;;;;;;;;;11.25;11.25;;;;;27.96;34.61;101104.13;2405132;28;47162;-76
2022/07/19 09:28:13;;;;;;;;;9.75;7.75;;;;;27.94;34.86;101097.19;2414797;28;45229;-75
2022/07/19 09:29:24;;;;;;;;;10.25;9.50;;;;;27.95;35.26;101098.88;2423014;28;45482;-76
2022/07/19 09:31:02;;;;;;;;;16.00;13.00;;;;;27.96;34.96;101100.56;2422979;28;45150;-75
2022/07/19 09:32:18;;;;;;;;;8.50;8.50;;;;;27.97;34.85;101086.91;2415114;28;45438;-75
2022/07/19 09:33:30;;;;;;;;;10.75;9.00;;;;;28.01;34.83;101084.72;2430985;28;45183;-76
2022/07/19 09:35:01;;;;;;;;;9.00;8.00;;;;;28.06;34.83;101084.25;2430567;28;45406;-76
2022/07/19 09:36:13;;;;;;;;;10.25;10.00;;;;;28.08;34.95;101083.09;2429349;28;45289;-76
2022/07/19 09:37:28;;;;;;;;;11.00;11.00;;;;;28.09;34.42;101086.66;2416124;28;48821;-76
2022/07/19 09:38:42;;;;;;;;;8.00;8.00;;;;;28.11;34.71;101090.03;2411806;28;45296;-76
2022/07/19 09:39:55;;;;;;;;;11.00;8.25;;;;;28.15;34.63;101079.78;2416503;28;46320;-76
2022/07/19 09:41:18;;;;;;;;;9.25;7.25;;;;;28.16;34.96;101078.75;2416352;28;46005;-76
2022/07/19 09:42:42;;;;;;;;;10.00;10.00;;;;;28.20;34.80;101083.66;2419357;28;45541;-76
2022/07/19 09:43:54;;;;;;;;;9.75;9.75;;;;;28.23;34.58;101082.50;2418334;28;45478;-76
2022/07/19 09:45:07;;;;;;;;;9.00;9.00;;;;;28.24;34.71;101073.41;2421520;28;45261;-76
2022/07/19 09:46:44;;;;;;;;;11.50;10.50;;;;;28.29;34.33;101081.03;2418776;28;45731;-76
2022/07/19 09:47:57;;;;;;;;;9.00;9.00;;;;;28.33;34.74;101073.44;2415345;28;48152;-76
2022/07/19 09:49:14;;;;;;;;;11.75;10.50;;;;;28.35;33.85;101080.38;2416204;28;45345;-75
2022/07/19 09:50:24;;;;;;;;;11.00;9.00;;;;;28.40;34.28;101077.16;2427263;28;46330;-76
2022/07/19 09:51:37;;;;;;;;;10.00;10.00;;;;;28.45;33.93;101068.66;2406208;28;45425;-76
2022/07/19 09:52:49;;;;;;;;;12.00;12.00;;;;;28.49;33.86;101072.72;2410323;28;45490;-75
2022/07/19 09:54:02;;;;;;;;;12.25;11.00;;;;;28.52;34.02;101069.69;2409760;28;45750;-76
2022/07/19 09:55:13;;;;;;;;;11.00;9.00;;;;;28.55;34.12;101069.34;2414630;28;46229;-76
2022/07/19 09:56:27;;;;;;;;;9.50;7.75;;;;;28.56;33.88;101062.94;2422294;28;45220;-75
2022/07/19 09:57:44;;;;;;;;;12.75;11.00;;;;;28.57;33.42;101059.19;2414416;28;46132;-75
2022/07/19 09:58:56;;;;;;;;;9.50;9.50;;;;;28.58;33.67;101065.47;2413388;28;45163;-75
2022/07/19 10:00:08;;;;;;;;;9.50;9.00;;;;;28.57;33.48;101058.38;2419336;28;48274;-75
2022/07/19 10:01:19;;;;;;;;;11.75;10.75;;;;;28.56;33.47;101056.69;2421499;28;45247;-76
2022/07/19 10:02:34;;;;;;;;;8.25;7.50;;;;;28.57;33.73;101055.69;2421812;28;46456;-76
2022/07/19 10:03:45;;;;;;;;;12.00;10.25;;;;;28.57;33.77;101056.50;2411679;28;45229;-76
2022/07/19 10:04:57;;;;;;;;;11.00;10.25;;;;;28.58;33.51;101046.53;2412246;28;47185;-76
2022/07/19 10:06:07;;;;;;;;;9.50;8.25;;;;;28.58;33.75;101049.25;2416194;28;45465;-75
2022/07/19 10:07:18;;;;;;;;;10.75;9.00;;;;;28.57;33.38;101042.97;2419789;28;45818;-75
2022/07/19 10:08:29;;;;;;;;;9.25;8.50;;;;;28.56;33.41;101049.41;2416402;28;45163;-75
2022/07/19 10:09:39;;;;;;;;;9.50;8.50;;;;;28.56;33.75;101043.16;2422597;28;45528;-76
2022/07/19 10:10:50;;;;;;;;;11.75;10.25;;;;;28.57;33.31;101047.56;2424943;28;44738;-76
2022/07/19 10:12:00;;;;;;;;;11.00;9.25;;;;;28.55;33.48;101041.47;2418776;28;46352;-76
2022/07/19 10:13:11;;;;;;;;;11.25;10.00;;;;;28.52;32.29;101035.38;2417576;28;45351;-76
2022/07/19 10:14:21;;;;;;;;;9.00;7.00;;;;;28.56;33.54;101035.03;2423699;28;47324;-76
2022/07/19 10:15:37;;;;;;;;;11.75;7.50;;;;;28.59;33.16;101029.31;2422388;28;45475;-76
2022/07/19 10:16:53;;;;;;;;;13.25;11.25;;;;;28.61;33.05;101030.84;2414986;28;46394;-76
2022/07/19 10:18:14;;;;;;;;;11.25;9.50;;;;;28.62;32.93;101032.53;2419435;28;45489;-76
2022/07/19 10:19:40;;;;;;;;;8.50;8.50;;;;;28.61;33.06;101028.16;2407468;28;47322;-76
2022/07/19 10:20:51;;;;;;;;;12.75;8.75;;;;;28.62;32.85;101024.41;2416761;28;44926;-76
2022/07/19 10:22:03;;;;;;;;;10.75;8.50;;;;;28.60;32.87;101022.88;2419208;28;47240;-76
2022/07/19 10:23:14;;;;;;;;;11.00;8.50;;;;;28.63;32.90;101026.13;2414812;28;45443;-76
2022/07/19 10:24:44;;;;;;;;;10.25;8.50;;;;;28.65;33.04;101013.28;2428747;28;46453;-77
2022/07/19 10:25:54;;;;;;;;;10.00;10.00;;;;;28.66;32.75;101011.44;2407145;28;44579;-76
2022/07/19 10:27:05;;;;;;;;;9.00;9.00;;;;;28.68;32.92;101017.53;2405720;28;46943;-76
2022/07/19 10:28:37;;;;;;;;;12.50;8.75;;;;;28.71;32.17;101009.09;2402874;28;44636;-76
2022/07/19 10:29:47;;;;;;;;;10.25;9.00;;;;;28.76;32.79;101008.59;2412330;28;46663;-76
2022/07/19 10:30:58;;;;;;;;;9.00;9.00;;;;;28.79;33.04;101004.72;2415796;28;45351;-76
2022/07/19 10:32:12;;;;;;;;;13.25;10.25;;;;;28.78;32.35;101003.84;2415386;28;47037;-76
2022/07/19 10:33:27;;;;;;;;;8.00;8.00;;;;;28.78;32.08;101000.28;2414304;28;44823;-76
2022/07/19 10:34:39;;;;;;;;;9.75;8.00;;;;;28.76;31.60;100998.63;2412222;28;48384;-76
2022/07/19 10:35:49;;;;;;;;;12.25;10.00;;;;;28.76;32.52;100993.22;2417350;28;45558;-76